Time;durP1;ratioP1;P1;durP2;ratioP2;P2;SDS_P1;SDS_P2;PMS_P1;PMS_P2;Temp;Humidity;BMP_temperature;BMP_pressure;BME280_temperature;BME280_humidity;BME280_pressure;Samples;Min_cycle;Max_cycle;Signal;HPM_P1;HPM_P2
2023/06/29 00:00:19;;;;;;;1999.90;999.90;;;16.00;99.90;;;;;;5037536;28;20034;-72
2023/06/29 00:02:45;;;;;;;1999.90;999.90;;;16.00;99.90;;;;;;5035076;28;20030;-71
2023/06/29 00:05:11;;;;;;;1999.90;999.90;;;15.90;99.90;;;;;;5031272;28;20476;-72
2023/06/29 00:07:36;;;;;;;1999.90;999.90;;;15.80;99.90;;;;;;5029158;28;20038;-72
2023/06/29 00:10:02;;;;;;;1999.90;999.90;;;15.80;99.90;;;;;;5036884;28;20117;-72
2023/06/29 00:12:28;;;;;;;1999.90;999.90;;;15.70;99.90;;;;;;5034256;28;20475;-72
2023/06/29 00:14:53;;;;;;;1999.90;999.90;;;15.70;99.90;;;;;;5033530;28;20117;-72
2023/06/29 00:17:20;;;;;;;1999.90;999.90;;;15.70;99.90;;;;;;5030792;28;20117;-72
2023/06/29 00:19:47;;;;;;;1999.90;999.90;;;15.70;99.90;;;;;;5037029;28;20061;-72
2023/06/29 00:22:13;;;;;;;1999.90;999.90;;;15.70;99.90;;;;;;5036929;28;20525;-72
2023/06/29 00:24:42;;;;;;;1999.90;999.90;;;15.60;99.90;;;;;;5037180;28;20093;-72
2023/06/29 00:27:14;;;;;;;1999.90;999.90;;;15.60;99.90;;;;;;5036914;28;20038;-72
2023/06/29 00:29:42;;;;;;;1999.90;999.90;;;15.60;99.90;;;;;;5036618;28;20040;-72
2023/06/29 00:32:09;;;;;;;1999.90;999.90;;;15.50;99.90;;;;;;5036568;28;20033;-72
2023/06/29 00:34:35;;;;;;;1999.90;999.90;;;15.50;99.90;;;;;;5035634;28;20037;-71
2023/06/29 00:37:01;;;;;;;1999.90;999.90;;;15.40;99.90;;;;;;5036958;28;20034;-72
2023/06/29 00:39:26;;;;;;;1999.90;999.90;;;15.40;99.90;;;;;;5036894;28;20084;-72
2023/06/29 00:41:55;;;;;;;1999.90;999.90;;;15.40;99.90;;;;;;5036932;28;20034;-72
2023/06/29 00:44:22;;;;;;;1999.90;999.90;;;15.30;99.90;;;;;;5036881;28;20577;-72
2023/06/29 00:46:49;;;;;;;1999.90;999.90;;;15.30;99.90;;;;;;5037032;28;20112;-72
2023/06/29 00:49:15;;;;;;;1999.90;999.90;;;15.40;99.90;;;;;;5026555;28;20062;-72
2023/06/29 00:51:41;;;;;;;1999.90;999.90;;;15.30;99.90;;;;;;5016766;28;20527;-72
2023/06/29 00:54:07;;;;;;;1999.90;999.90;;;15.30;99.90;;;;;;5015258;28;20768;-71
2023/06/29 00:56:34;;;;;;;1999.90;999.90;;;15.20;99.90;;;;;;5016838;28;20090;-72
2023/06/29 00:59:00;;;;;;;1999.90;999.90;;;15.30;99.90;;;;;;5036241;28;20042;-72
2023/06/29 01:01:29;;;;;;;1999.90;999.90;;;15.30;99.90;;;;;;5034638;28;20033;-72
2023/06/29 01:03:56;;;;;;;1999.90;999.90;;;15.30;99.90;;;;;;5034713;28;20496;-72
2023/06/29 01:06:29;;;;;;;1999.90;999.90;;;15.20;99.90;;;;;;5036181;28;20381;-72
2023/06/29 01:09:01;;;;;;;1999.90;999.90;;;15.20;99.90;;;;;;5036057;28;20038;-72
2023/06/29 01:11:27;;;;;;;1999.90;999.90;;;15.10;99.90;;;;;;5035903;28;20040;-72
2023/06/29 01:13:53;;;;;;;1999.90;999.90;;;15.10;99.90;;;;;;5022819;28;20030;-72
2023/06/29 01:16:21;;;;;;;1999.90;999.90;;;15.10;99.90;;;;;;5016900;28;20033;-72
2023/06/29 01:18:47;;;;;;;1999.90;999.90;;;15.10;99.90;;;;;;5036003;28;20472;-72
2023/06/29 01:21:14;;;;;;;1999.90;999.90;;;15.10;99.90;;;;;;5035706;28;20053;-71
2023/06/29 01:23:41;;;;;;;1999.90;999.90;;;15.00;99.90;;;;;;5036490;28;20026;-72
2023/06/29 01:26:06;;;;;;;1999.90;999.90;;;14.90;99.90;;;;;;5036381;28;20026;-72
2023/06/29 01:28:36;;;;;;;1999.90;999.90;;;14.90;99.90;;;;;;5035391;28;20046;-72
2023/06/29 01:31:02;;;;;;;1999.90;999.90;;;14.90;99.90;;;;;;5015957;28;20080;-72
2023/06/29 01:33:29;;;;;;;1999.90;999.90;;;14.80;99.90;;;;;;5016549;28;20034;-72
2023/06/29 01:36:03;;;;;;;1999.90;999.90;;;14.80;99.90;;;;;;5016214;28;20101;-72
2023/06/29 01:38:37;;;;;;;1999.90;999.90;;;14.80;99.90;;;;;;5016323;28;20129;-72
2023/06/29 01:41:06;;;;;;;1999.90;999.90;;;14.80;99.90;;;;;;5016145;28;20027;-72
2023/06/29 01:43:33;;;;;;;1999.90;999.90;;;14.80;99.90;;;;;;5016214;28;20106;-72
2023/06/29 01:45:59;;;;;;;1999.90;999.90;;;14.80;99.90;;;;;;5016316;28;20070;-72
2023/06/29 01:48:26;;;;;;;1999.90;999.90;;;14.80;99.90;;;;;;5015821;28;20094;-70
2023/06/29 01:50:51;;;;;;;1999.90;999.90;;;14.90;99.90;;;;;;5016241;28;20089;-71
2023/06/29 01:53:17;;;;;;;1999.90;999.90;;;14.70;99.90;;;;;;5015153;28;20089;-71
2023/06/29 01:55:43;;;;;;;1999.90;999.90;;;14.70;99.90;;;;;;5016040;28;20121;-71
2023/06/29 01:58:09;;;;;;;1999.90;999.90;;;14.70;99.90;;;;;;5015811;28;20381;-72
2023/06/29 02:00:35;;;;;;;1999.90;999.90;;;14.60;99.90;;;;;;5015975;28;20030;-71
2023/06/29 02:03:01;;;;;;;1999.90;999.90;;;14.60;99.90;;;;;;5014232;28;20476;-72
2023/06/29 02:05:26;;;;;;;1999.90;999.90;;;14.60;99.90;;;;;;5018349;28;20546;-72
2023/06/29 02:07:52;;;;;;;1999.90;999.90;;;14.60;99.90;;;;;;5033791;28;20034;-72
2023/06/29 02:10:18;;;;;;;1999.90;999.90;;;14.50;99.90;;;;;;5035561;28;20383;-72
2023/06/29 02:12:43;;;;;;;1999.90;999.90;;;14.50;99.90;;;;;;5034939;28;20064;-71
2023/06/29 02:15:10;;;;;;;1999.90;999.90;;;14.40;99.90;;;;;;5034315;28;20141;-71
2023/06/29 02:17:36;;;;;;;1999.90;999.90;;;14.40;99.90;;;;;;5019144;28;20860;-72
2023/06/29 02:20:01;;;;;;;1999.90;999.90;;;14.40;99.90;;;;;;5035056;28;20411;-72
2023/06/29 02:22:27;;;;;;;1999.90;999.90;;;14.40;99.90;;;;;;5034823;28;20551;-71
2023/06/29 02:24:52;;;;;;;1999.90;999.90;;;14.30;99.90;;;;;;5019389;28;20435;-72
2023/06/29 02:27:18;;;;;;;1999.90;999.90;;;14.30;99.90;;;;;;5016394;28;20500;-72
2023/06/29 02:29:44;;;;;;;1999.90;999.90;;;14.30;99.90;;;;;;5033484;28;20045;-71
2023/06/29 02:32:09;;;;;;;1999.90;999.90;;;14.30;99.90;;;;;;5034871;28;20120;-71
2023/06/29 02:34:35;;;;;;;1999.90;999.90;;;14.30;99.90;;;;;;5035203;28;20056;-72
2023/06/29 02:37:00;;;;;;;1999.90;999.90;;;14.40;99.90;;;;;;5035141;28;20089;-72
2023/06/29 02:39:26;;;;;;;1999.90;999.90;;;14.40;99.90;;;;;;5034222;28;20045;-71
2023/06/29 02:41:51;;;;;;;1999.90;999.90;;;14.40;99.90;;;;;;5014892;28;20034;-72
2023/06/29 02:44:17;;;;;;;1999.90;999.90;;;14.40;99.90;;;;;;5013764;28;20424;-72
2023/06/29 02:46:42;;;;;;;1999.90;999.90;;;14.50;99.90;;;;;;5015360;28;20038;-71
2023/06/29 02:49:08;;;;;;;1999.90;999.90;;;14.40;99.90;;;;;;5014725;28;20484;-72
2023/06/29 02:51:34;;;;;;;1999.90;999.90;;;14.40;99.90;;;;;;5014920;28;20041;-72
2023/06/29 02:53:59;;;;;;;1999.90;999.90;;;14.40;99.90;;;;;;5015255;28;20464;-71
2023/06/29 02:56:25;;;;;;;1999.90;999.90;;;14.40;99.90;;;;;;5015177;28;20038;-72
2023/06/29 02:58:50;;;;;;;1999.90;999.90;;;14.40;99.90;;;;;;5014798;28;20412;-72
2023/06/29 03:01:16;;;;;;;1999.90;999.90;;;14.40;99.90;;;;;;5014728;28;20030;-72
2023/06/29 03:03:41;;;;;;;1999.90;999.90;;;14.30;99.90;;;;;;5013535;28;20042;-72
2023/06/29 03:06:07;;;;;;;1999.90;999.90;;;14.20;99.90;;;;;;5013340;28;20037;-72
2023/06/29 03:08:32;;;;;;;1999.90;999.90;;;14.20;99.90;;;;;;5014577;28;20031;-72
2023/06/29 03:10:58;;;;;;;1999.90;999.90;;;14.10;99.90;;;;;;5014509;28;20039;-72
2023/06/29 03:13:23;;;;;;;1999.90;999.90;;;14.20;99.90;;;;;;5014988;28;20041;-71
2023/06/29 03:15:49;;;;;;;1999.90;999.90;;;14.10;99.90;;;;;;5014922;28;20041;-72
2023/06/29 03:18:14;;;;;;;1999.90;999.90;;;14.20;99.90;;;;;;5033930;28;20094;-72
2023/06/29 03:20:40;;;;;;;1999.90;999.90;;;14.20;99.90;;;;;;5034577;28;20079;-72
2023/06/29 03:23:05;;;;;;;1999.90;999.90;;;14.20;99.90;;;;;;5033746;28;20037;-72
2023/06/29 03:25:31;;;;;;;1999.90;999.90;;;14.10;99.90;;;;;;5034248;28;20403;-72
2023/06/29 03:27:56;;;;;;;1999.90;999.90;;;14.10;99.90;;;;;;5033283;28;20052;-72
2023/06/29 03:30:22;;;;;;;1999.90;999.90;;;14.10;99.90;;;;;;5032601;28;20034;-72
2023/06/29 03:32:48;;;;;;;1999.90;999.90;;;14.00;99.90;;;;;;5032670;28;20061;-71
2023/06/29 03:35:13;;;;;;;1999.90;999.90;;;14.10;99.90;;;;;;5033918;28;20543;-72
2023/06/29 03:37:39;;;;;;;1999.90;999.90;;;14.10;99.90;;;;;;5033773;28;20045;-72
2023/06/29 03:40:05;;;;;;;1999.90;999.90;;;14.10;99.90;;;;;;5033933;28;20137;-71
2023/06/29 03:42:30;;;;;;;1999.90;999.90;;;14.10;99.90;;;;;;5033825;28;20034;-72
2023/06/29 03:44:56;;;;;;;1999.90;999.90;;;14.20;99.90;;;;;;5034040;28;20038;-72
2023/06/29 03:47:21;;;;;;;1999.90;999.90;;;14.20;99.90;;;;;;5014289;28;20499;-72
2023/06/29 03:49:47;;;;;;;1999.90;999.90;;;14.20;99.90;;;;;;5012559;28;20489;-71
2023/06/29 03:52:13;;;;;;;1999.90;999.90;;;14.10;99.90;;;;;;5012326;28;20043;-72
2023/06/29 03:54:39;;;;;;;1999.90;999.90;;;14.20;99.90;;;;;;5014231;28;20073;-72
2023/06/29 03:57:05;;;;;;;1999.90;999.90;;;14.20;99.90;;;;;;5012629;28;20049;-72
2023/06/29 03:59:31;;;;;;;1999.90;999.90;;;14.10;99.90;;;;;;5033509;28;20034;-72
2023/06/29 04:01:57;;;;;;;1999.90;999.90;;;14.10;99.90;;;;;;5032333;28;20407;-72
2023/06/29 04:04:22;;;;;;;1999.90;999.90;;;14.10;99.90;;;;;;5033982;28;20120;-72
2023/06/29 04:06:48;;;;;;;1999.90;999.90;;;14.20;99.90;;;;;;5033949;28;20040;-70
2023/06/29 04:09:13;;;;;;;1999.90;999.90;;;14.20;99.90;;;;;;5032471;28;20030;-72
2023/06/29 04:11:39;;;;;;;1999.90;999.90;;;14.10;99.90;;;;;;5033839;28;20476;-72
2023/06/29 04:14:05;;;;;;;1999.90;999.90;;;14.10;99.90;;;;;;5034005;28;20083;-71
2023/06/29 04:16:30;;;;;;;1999.90;999.90;;;14.20;99.90;;;;;;5034129;28;20034;-72
2023/06/29 04:18:56;;;;;;;1999.90;999.90;;;14.20;99.90;;;;;;5034231;28;20092;-71
2023/06/29 04:21:21;;;;;;;1999.90;999.90;;;14.30;99.90;;;;;;5033607;28;20036;-70
2023/06/29 04:23:47;;;;;;;1999.90;999.90;;;14.30;99.90;;;;;;5033984;28;20058;-71
2023/06/29 04:26:13;;;;;;;1999.90;999.90;;;14.30;99.90;;;;;;5033693;28;20476;-71
2023/06/29 04:28:38;;;;;;;1999.90;999.90;;;14.30;99.90;;;;;;5026058;28;20038;-72
2023/06/29 04:31:04;;;;;;;1999.90;999.90;;;14.30;99.90;;;;;;5032797;28;20033;-71
2023/06/29 04:33:30;;;;;;;1999.90;999.90;;;14.30;99.90;;;;;;5033586;28;20393;-71
2023/06/29 04:35:55;;;;;;;1999.90;999.90;;;14.40;99.90;;;;;;5032429;28;20030;-71
2023/06/29 04:38:25;;;;;;;1999.90;999.90;;;14.50;99.90;;;;;;5033479;28;20038;-71
2023/06/29 04:41:03;;;;;;;1999.90;999.90;;;14.50;99.90;;;;;;5035125;28;20030;-70
2023/06/29 04:43:32;;;;;;;1999.90;999.90;;;14.50;99.90;;;;;;5036923;28;20758;-70
2023/06/29 04:46:00;;;;;;;1999.90;999.90;;;14.50;99.90;;;;;;5036012;28;20113;-71
2023/06/29 04:48:29;;;;;;;1999.90;999.90;;;14.60;99.90;;;;;;5034182;28;20495;-71
2023/06/29 04:51:02;;;;;;;1999.90;999.90;;;14.60;99.90;;;;;;5035754;28;20034;-71
2023/06/29 04:53:28;;;;;;;1999.90;999.90;;;14.70;99.90;;;;;;5034164;28;20034;-71
2023/06/29 04:55:54;;;;;;;1999.90;999.90;;;14.80;99.90;;;;;;5036088;28;20041;-70
2023/06/29 04:58:19;;;;;;;1999.90;999.90;;;14.90;99.90;;;;;;5035826;28;20404;-71
2023/06/29 05:00:45;;;;;;;1999.90;999.90;;;14.90;99.90;;;;;;5034953;28;20073;-71
2023/06/29 05:03:10;;;;;;;1999.90;999.90;;;14.90;99.90;;;;;;5036480;28;20037;-71
2023/06/29 05:05:36;;;;;;;1999.90;999.90;;;15.10;99.90;;;;;;5036765;28;20406;-71
2023/06/29 05:08:01;;;;;;;1999.90;999.90;;;15.10;99.90;;;;;;5036487;28;20060;-72
2023/06/29 05:10:27;;;;;;;1999.90;999.90;;;15.20;99.90;;;;;;5017758;28;20476;-71
2023/06/29 05:12:53;;;;;;;1999.90;999.90;;;15.30;99.90;;;;;;5016555;28;20058;-70
2023/06/29 05:15:18;;;;;;;1999.90;999.90;;;15.40;99.90;;;;;;5016761;28;20035;-72
2023/06/29 05:17:44;;;;;;;1999.90;999.90;;;15.50;99.90;;;;;;5015211;28;20408;-72
2023/06/29 05:20:10;;;;;;;1999.90;999.90;;;15.50;99.90;;;;;;5016557;28;20027;-71
2023/06/29 05:22:36;;;;;;;1999.90;999.90;;;15.60;99.90;;;;;;5015660;28;20835;-71
2023/06/29 05:25:01;;;;;;;1999.90;999.90;;;15.70;99.90;;;;;;5015745;28;20073;-71
2023/06/29 05:27:27;;;;;;;1999.90;999.90;;;15.80;99.90;;;;;;5016510;28;20503;-72
2023/06/29 05:29:52;;;;;;;1999.90;999.90;;;15.90;99.90;;;;;;5016211;28;20468;-72
2023/06/29 05:32:18;;;;;;;1999.90;999.90;;;15.90;99.90;;;;;;5016225;28;20039;-72
2023/06/29 05:34:43;;;;;;;1999.90;999.90;;;16.00;99.90;;;;;;5016387;28;20034;-73
2023/06/29 05:37:09;;;;;;;1999.90;999.90;;;16.10;99.90;;;;;;5016270;28;20041;-72
2023/06/29 05:39:34;;;;;;;1999.90;999.90;;;16.20;99.90;;;;;;5014823;28;20129;-73
2023/06/29 05:42:00;;;;;;;1999.90;999.90;;;16.30;99.90;;;;;;5016207;28;20793;-73
2023/06/29 05:44:26;;;;;;;1999.90;999.90;;;16.40;99.90;;;;;;5015579;28;20042;-73
2023/06/29 05:46:51;;;;;;;1999.90;999.90;;;16.60;99.90;;;;;;5016181;28;20045;-73
2023/06/29 05:49:17;;;;;;;1999.90;999.90;;;16.70;99.90;;;;;;5015309;28;20046;-74
2023/06/29 05:51:42;;;;;;;1999.90;999.90;;;16.80;99.90;;;;;;5016360;28;20093;-74
2023/06/29 05:54:08;;;;;;;1999.90;999.90;;;17.00;99.90;;;;;;5016326;28;20031;-77
2023/06/29 05:56:33;;;;;;;1999.90;999.90;;;17.10;99.90;;;;;;5016216;28;20030;-74
2023/06/29 05:58:59;;;;;;;1999.90;999.90;;;17.20;99.90;;;;;;5016082;28;20042;-72
2023/06/29 06:01:25;;;;;;;1999.90;999.90;;;17.40;99.90;;;;;;5015440;28;20066;-73
2023/06/29 06:03:50;;;;;;;1999.90;999.90;;;17.30;99.90;;;;;;5016022;28;20046;-73
2023/06/29 06:06:16;;;;;;;1999.90;999.90;;;17.50;99.90;;;;;;5016157;28;20392;-73
2023/06/29 06:08:41;;;;;;;1999.90;999.90;;;17.60;99.90;;;;;;5015791;28;20037;-73
2023/06/29 06:11:07;;;;;;;1999.90;999.90;;;17.70;99.90;;;;;;5015540;28;20092;-75
2023/06/29 06:13:32;;;;;;;1999.90;999.90;;;17.80;99.90;;;;;;5015747;28;20050;-73
2023/06/29 06:15:58;;;;;;;1999.90;999.90;;;17.90;99.90;;;;;;5015668;28;20042;-74
2023/06/29 06:18:23;;;;;;;1999.90;999.90;;;18.00;99.90;;;;;;5015180;28;20069;-73
2023/06/29 06:20:49;;;;;;;1999.90;999.90;;;18.10;99.90;;;;;;5015928;28;20038;-73
2023/06/29 06:23:14;;;;;;;1999.90;999.90;;;18.10;99.90;;;;;;5015480;28;20105;-71
2023/06/29 06:25:40;;;;;;;1999.90;999.90;;;18.20;99.90;;;;;;5015784;28;20041;-74
2023/06/29 06:28:05;;;;;;;1999.90;999.90;;;18.30;99.90;;;;;;5015642;28;20117;-77
2023/06/29 06:30:31;;;;;;;1999.90;999.90;;;18.40;99.90;;;;;;5015822;28;20121;-71
2023/06/29 06:32:57;;;;;;;1999.90;999.90;;;18.50;99.90;;;;;;5015429;28;20038;-72
2023/06/29 06:35:23;;;;;;;1999.90;999.90;;;18.60;99.90;;;;;;5015274;28;20044;-71
2023/06/29 06:37:49;;;;;;;1999.90;999.90;;;18.70;99.90;;;;;;5015406;28;20108;-74
2023/06/29 06:40:15;;;;;;;1999.90;999.90;;;18.70;99.90;;;;;;5015638;28;20787;-71
2023/06/29 06:42:41;;;;;;;1999.90;999.90;;;18.80;99.90;;;;;;5015227;28;20042;-74
2023/06/29 06:45:08;;;;;;;1999.90;999.90;;;18.90;99.90;;;;;;5014225;28;20065;-71
2023/06/29 06:47:35;;;;;;;1999.90;999.90;;;19.00;99.90;;;;;;5015579;28;20058;-74
2023/06/29 06:50:01;;;;;;;1999.90;999.90;;;19.10;99.90;;;;;;5015149;28;20035;-71
2023/06/29 06:52:26;;;;;;;1999.90;999.90;;;19.20;99.90;;;;;;5015181;28;20038;-72
2023/06/29 06:54:52;;;;;;;1999.90;999.90;;;19.30;99.90;;;;;;5013825;28;20030;-74
2023/06/29 06:57:18;;;;;;;1999.90;999.90;;;19.30;99.90;;;;;;5015034;28;20034;-71
2023/06/29 06:59:44;;;;;;;1999.90;999.90;;;19.40;99.90;;;;;;5015145;28;20078;-71
2023/06/29 07:02:10;;;;;;;1999.90;999.90;;;19.50;99.90;;;;;;5014129;28;20097;-71
2023/06/29 07:04:36;;;;;;;1999.90;999.90;;;19.60;99.90;;;;;;5015281;28;20111;-71
2023/06/29 07:07:01;;;;;;;1999.90;999.90;;;19.90;99.80;;;;;;5015294;28;20037;-71
2023/06/29 07:09:27;;;;;;;1999.90;999.90;;;20.20;99.30;;;;;;5013447;28;20038;-71
2023/06/29 07:11:52;;;;;;;1999.90;999.90;;;20.30;98.50;;;;;;5014773;28;20034;-71
2023/06/29 07:14:18;;;;;;;1999.90;999.90;;;20.60;98.30;;;;;;5015022;28;20500;-71
2023/06/29 07:16:44;;;;;;;1999.90;999.90;;;20.80;97.40;;;;;;5014348;28;20042;-74
2023/06/29 07:19:14;;;;;;;1999.90;999.90;;;21.10;97.30;;;;;;5014352;28;20455;-71
2023/06/29 07:21:39;;;;;;;1999.90;999.90;;;21.30;96.80;;;;;;5014835;28;20507;-71
2023/06/29 07:24:06;;;;;;;1999.90;999.90;;;21.40;96.30;;;;;;5015200;28;20046;-72
2023/06/29 07:26:31;;;;;;;1999.90;999.90;;;21.60;96.00;;;;;;5014795;28;20066;-72
2023/06/29 07:28:57;;;;;;;1999.90;999.90;;;21.90;95.80;;;;;;5014500;28;20066;-72
2023/06/29 07:31:31;;;;;;;1999.90;999.90;;;22.00;95.30;;;;;;5014537;28;20039;-71
2023/06/29 07:33:57;;;;;;;1999.90;999.90;;;22.00;95.10;;;;;;5014598;28;20031;-75
2023/06/29 07:36:24;;;;;;;1999.90;999.90;;;22.10;93.90;;;;;;5014240;28;20034;-71
2023/06/29 07:38:50;;;;;;;1999.90;999.90;;;22.50;94.10;;;;;;5014411;28;20043;-71
2023/06/29 07:41:17;;;;;;;1999.90;999.90;;;22.60;93.90;;;;;;5014489;28;20034;-71
2023/06/29 07:43:47;;;;;;;1999.90;999.90;;;22.90;93.50;;;;;;5014674;28;20129;-72
2023/06/29 07:46:13;;;;;;;1999.90;999.90;;;23.20;92.70;;;;;;5014489;28;20030;-71
2023/06/29 07:48:39;;;;;;;1999.90;999.90;;;23.40;91.70;;;;;;5047099;22;20053;-71
2023/06/29 07:51:04;;;;;;;1999.90;999.90;;;23.60;91.80;;;;;;5073395;28;20444;-71
2023/06/29 07:53:31;;;;;;;1999.90;999.90;;;23.80;91.40;;;;;;5074169;28;20466;-72
2023/06/29 07:55:57;;;;;;;1999.90;999.90;;;24.00;90.80;;;;;;5072590;28;20033;-72
2023/06/29 07:58:23;;;;;;;1999.90;999.90;;;24.00;90.50;;;;;;5073829;28;20072;-73
2023/06/29 08:00:49;;;;;;;1999.90;999.90;;;24.10;89.70;;;;;;5072274;28;20032;-72
2023/06/29 08:03:14;;;;;;;1999.90;999.90;;;24.20;90.00;;;;;;5074123;28;20029;-72
2023/06/29 08:05:40;;;;;;;1999.90;999.90;;;24.50;86.40;;;;;;5072582;28;20037;-72
2023/06/29 08:08:05;;;;;;;1999.90;999.90;;;24.80;87.10;;;;;;5074140;28;20045;-72
2023/06/29 08:10:31;;;;;;;1999.90;999.90;;;25.20;84.80;;;;;;5073929;28;20116;-72
2023/06/29 08:12:57;;;;;;;1999.90;999.90;;;25.40;82.00;;;;;;5073476;28;20045;-72
2023/06/29 08:15:22;;;;;;;1999.90;999.90;;;25.60;81.30;;;;;;5075816;28;20025;-72
2023/06/29 08:17:48;;;;;;;1999.90;999.90;;;25.80;81.20;;;;;;5077221;28;20041;-72
2023/06/29 08:20:13;;;;;;;1999.90;999.90;;;25.90;77.80;;;;;;5077341;28;20694;-72
2023/06/29 08:22:41;;;;;;;1999.90;999.90;;;25.70;75.40;;;;;;5076945;28;20087;-72
2023/06/29 08:25:07;;;;;;;1999.90;999.90;;;25.60;79.50;;;;;;5077192;28;20469;-72
2023/06/29 08:27:33;;;;;;;1999.90;999.90;;;25.90;76.20;;;;;;5077245;28;20037;-72
2023/06/29 08:29:58;;;;;;;1999.90;999.90;;;26.10;76.30;;;;;;5076831;28;20474;-72
2023/06/29 08:32:24;;;;;;;1999.90;999.90;;;26.00;77.00;;;;;;5075244;28;20044;-72
2023/06/29 08:34:49;;;;;;;1999.90;999.90;;;25.90;76.30;;;;;;5077298;28;20040;-73
2023/06/29 08:37:15;;;;;;;1999.90;999.90;;;25.70;75.10;;;;;;5074081;28;20117;-73
2023/06/29 08:39:41;;;;;;;1999.90;999.90;;;26.00;76.10;;;;;;5077250;28;20067;-75
2023/06/29 08:42:07;;;;;;;1999.90;999.90;;;26.00;74.50;;;;;;5075317;28;20056;-71
2023/06/29 08:44:33;;;;;;;1999.90;999.90;;;26.30;75.30;;;;;;5068816;28;20045;-72
2023/06/29 08:47:01;;;;;;;1999.90;999.90;;;26.70;74.40;;;;;;5062815;28;20033;-74
2023/06/29 08:49:28;;;;;;;1999.90;999.90;;;27.10;73.10;;;;;;5065227;28;20536;-74
2023/06/29 08:51:59;;;;;;;1999.90;999.90;;;27.70;71.60;;;;;;5063802;28;20073;-73
2023/06/29 08:54:26;;;;;;;1999.90;999.90;;;27.90;71.20;;;;;;5076294;28;20037;-73
2023/06/29 08:56:52;;;;;;;1999.90;999.90;;;27.60;73.00;;;;;;5076352;28;20147;-75
2023/06/29 08:59:18;;;;;;;1999.90;999.90;;;27.90;70.20;;;;;;5074655;28;20049;-75
2023/06/29 09:01:47;;;;;;;1999.90;999.90;;;27.80;70.60;;;;;;5075962;28;20032;-73
2023/06/29 09:04:12;;;;;;;1999.90;999.90;;;27.70;68.50;;;;;;5076353;28;20040;-73
2023/06/29 09:06:40;;;;;;;1999.90;999.90;;;27.40;67.90;;;;;;5074779;28;20438;-73
2023/06/29 09:09:07;;;;;;;1999.90;999.90;;;27.40;68.70;;;;;;5073342;28;20103;-73
2023/06/29 09:11:33;;;;;;;1999.90;999.90;;;27.30;68.90;;;;;;5073845;28;20032;-73
2023/06/29 09:14:07;;;;;;;1999.90;999.90;;;27.50;68.50;;;;;;5076315;28;20036;-73
2023/06/29 09:16:36;;;;;;;1999.90;999.90;;;27.40;67.50;;;;;;5076160;28;20826;-73
2023/06/29 09:19:05;;;;;;;1999.90;999.90;;;27.60;67.50;;;;;;5075402;28;20037;-73
2023/06/29 09:21:31;;;;;;;1999.90;999.90;;;28.00;68.20;;;;;;5075253;28;20116;-73
2023/06/29 09:23:59;;;;;;;1999.90;999.90;;;27.90;66.30;;;;;;5075828;28;20119;-73
2023/06/29 09:26:28;;;;;;;1999.90;999.90;;;28.60;69.10;;;;;;5075542;28;20517;-73
2023/06/29 09:28:59;;;;;;;1999.90;999.90;;;29.20;65.40;;;;;;5075703;28;20037;-71
2023/06/29 09:31:32;;;;;;;1999.90;999.90;;;29.30;66.50;;;;;;5074026;28;20493;-73
2023/06/29 09:34:16;;;;;;;1999.90;999.90;;;29.70;63.00;;;;;;5062679;28;20034;-72
2023/06/29 09:36:42;;;;;;;1999.90;999.90;;;29.70;61.90;;;;;;5055981;28;20088;-72
2023/06/29 09:39:08;;;;;;;1999.90;999.90;;;29.80;62.50;;;;;;5053800;28;20095;-73
2023/06/29 09:41:44;;;;;;;1999.90;999.90;;;29.40;60.40;;;;;;5055036;28;20147;-72
2023/06/29 09:44:10;;;;;;;1999.90;999.90;;;29.20;61.80;;;;;;5056622;28;20037;-73
2023/06/29 09:46:40;;;;;;;1999.90;999.90;;;29.60;61.40;;;;;;5072230;28;20041;-72
2023/06/29 09:49:08;;;;;;;1999.90;999.90;;;30.20;60.40;;;;;;5066049;28;20120;-72
2023/06/29 09:51:34;;;;;;;1999.90;999.90;;;30.40;60.60;;;;;;5070722;28;20082;-72
2023/06/29 09:54:02;;;;;;;1999.90;999.90;;;30.70;58.70;;;;;;5060823;28;20034;-72
2023/06/29 09:56:30;;;;;;;1999.90;999.90;;;30.90;58.30;;;;;;5059750;28;20033;-73
2023/06/29 09:58:56;;;;;;;1999.90;999.90;;;30.40;57.10;;;;;;5068331;28;20040;-72
2023/06/29 10:01:26;;;;;;;1999.90;999.90;;;30.50;57.20;;;;;;5053883;28;20029;-72
2023/06/29 10:03:51;;;;;;;1999.90;999.90;;;30.30;56.30;;;;;;5055600;28;20037;-73
2023/06/29 10:06:21;;;;;;;1999.90;999.90;;;30.20;59.80;;;;;;5053548;28;20036;-72
2023/06/29 10:08:50;;;;;;;1999.90;999.90;;;30.00;57.70;;;;;;5059143;28;20513;-72
2023/06/29 10:11:17;;;;;;;1999.90;999.90;;;29.90;59.50;;;;;;5066316;28;20037;-74
2023/06/29 10:13:48;;;;;;;1999.90;999.90;;;29.60;58.90;;;;;;5075520;28;20095;-73
2023/06/29 10:16:17;;;;;;;1999.90;999.90;;;29.50;58.60;;;;;;5073796;28;20036;-72
2023/06/29 10:18:47;;;;;;;1999.90;999.90;;;28.90;58.80;;;;;;5073364;28;20037;-72
2023/06/29 10:21:13;;;;;;;1999.90;999.90;;;28.80;61.20;;;;;;5075051;28;20029;-72
2023/06/29 10:23:41;;;;;;;1999.90;999.90;;;28.70;61.20;;;;;;5068615;28;20095;-74
2023/06/29 10:26:08;;;;;;;1999.90;999.90;;;29.10;60.90;;;;;;5058913;28;20043;-72
2023/06/29 10:28:35;;;;;;;1999.90;999.90;;;28.80;59.70;;;;;;5062433;28;20100;-77
2023/06/29 10:31:01;;;;;;;1999.90;999.90;;;29.00;60.50;;;;;;5060033;28;20033;-75
2023/06/29 10:33:26;;;;;;;1999.90;999.90;;;29.60;59.50;;;;;;5054032;28;20029;-77
2023/06/29 10:36:03;;;;;;;1999.90;999.90;;;30.20;57.50;;;;;;5054295;28;20065;-74
2023/06/29 10:38:32;;;;;;;1999.90;999.90;;;30.40;58.90;;;;;;5056300;28;20034;-73
2023/06/29 10:40:58;;;;;;;1999.90;999.90;;;31.10;56.90;;;;;;5074667;28;20115;-73
2023/06/29 10:43:27;;;;;;;1999.90;999.90;;;31.90;56.00;;;;;;5074893;28;20112;-73
2023/06/29 10:45:53;;;;;;;1999.90;999.90;;;32.50;53.70;;;;;;5061291;28;20029;-73
2023/06/29 10:48:20;;;;;;;1999.90;999.90;;;32.40;53.60;;;;;;5054046;28;20060;-73
2023/06/29 10:50:49;;;;;;;1999.90;999.90;;;32.30;53.50;;;;;;5053961;28;20025;-73
2023/06/29 10:53:16;;;;;;;1999.90;999.90;;;32.00;54.80;;;;;;5054254;28;20037;-72
2023/06/29 10:55:43;;;;;;;1999.90;999.90;;;31.20;54.10;;;;;;5054541;28;20025;-73
2023/06/29 10:58:14;;;;;;;1999.90;999.90;;;30.70;55.20;;;;;;5054433;28;20030;-73
2023/06/29 11:00:40;;;;;;;1999.90;999.90;;;30.50;56.20;;;;;;5052658;28;20430;-73
2023/06/29 11:03:11;;;;;;;1999.90;999.90;;;30.40;55.60;;;;;;5054291;28;20042;-73
2023/06/29 11:05:37;;;;;;;1999.90;999.90;;;30.30;56.80;;;;;;5072376;28;20127;-74
2023/06/29 11:08:05;;;;;;;1999.90;999.90;;;30.30;57.50;;;;;;5072939;28;20057;-75
2023/06/29 11:10:30;;;;;;;1999.90;999.90;;;30.50;57.80;;;;;;5073573;28;20469;-75
2023/06/29 11:12:56;;;;;;;1999.90;999.90;;;30.80;58.10;;;;;;5074498;28;20037;-74
2023/06/29 11:15:23;;;;;;;1999.90;999.90;;;30.70;55.10;;;;;;5074666;28;20475;-74
2023/06/29 11:17:50;;;;;;;1999.90;999.90;;;30.30;57.20;;;;;;5074199;28;20115;-74
2023/06/29 11:20:18;;;;;;;1999.90;999.90;;;30.20;57.10;;;;;;5074326;28;20470;-74
2023/06/29 11:22:45;;;;;;;1999.90;999.90;;;29.80;56.60;;;;;;5072490;28;20516;-75
2023/06/29 11:25:13;;;;;;;1999.90;999.90;;;29.30;58.80;;;;;;5072766;28;20029;-74
2023/06/29 11:27:40;;;;;;;1999.90;999.90;;;28.80;59.40;;;;;;5074011;28;20033;-74
2023/06/29 11:30:09;;;;;;;1999.90;999.90;;;28.80;58.50;;;;;;5058570;28;20048;-74
2023/06/29 11:32:35;;;;;;;1999.90;999.90;;;28.80;59.30;;;;;;5053796;28;20061;-74
2023/06/29 11:35:03;;;;;;;1999.90;999.90;;;28.70;60.50;;;;;;5054130;28;20087;-74
2023/06/29 11:37:30;;;;;;;1999.90;999.90;;;28.40;61.10;;;;;;5053685;28;20084;-74
2023/06/29 11:39:56;;;;;;;1999.90;999.90;;;28.40;61.30;;;;;;5054105;28;20040;-74
2023/06/29 11:42:24;;;;;;;1999.90;999.90;;;28.40;60.70;;;;;;5053940;28;20044;-74
2023/06/29 11:45:00;;;;;;;1999.90;999.90;;;28.60;60.70;;;;;;5052133;28;20040;-74
2023/06/29 11:47:26;;;;;;;1999.90;999.90;;;28.60;62.80;;;;;;5053671;28;20040;-74
2023/06/29 11:49:53;;;;;;;1999.90;999.90;;;28.70;61.20;;;;;;5059050;28;20040;-78
2023/06/29 11:52:19;;;;;;;1999.90;999.90;;;28.70;59.70;;;;;;5070298;28;20064;-73
2023/06/29 11:54:46;;;;;;;1999.90;999.90;;;28.50;59.20;;;;;;5059344;28;20073;-73